Northern, Minnesota
Current Conditions -  °F | °C
As of 8:14 PM on Monday 22 Dec 2014 (Local Time) from KBJI Reporting Station
Haze Haze  
Wind Chill: 26°   Ceiling: 600
Heat Index: 33°   Visibility: 5mi
Dew Point: 32°   Wind: 7mph
Humidity: 97%   Direction: 100°E
Pressure: 29.67"   Gusts: NA
Location:  47.5271°N, 94.7611°W
Report Text: KBJI 230214Z AUTO 10006KT 5SM BR OVC006 00/00 A2967 RMK AO2 T00040000
Loading
Personal Weather Stations






























Interactive Weather Map New forecast layout! Learn more

10-Day Weather Forecast

Advertisements
Track Severe Weather on mobile